sensor_id;sensor_type;location;lat;lon;timestamp;P1;durP1;ratioP1;P2;durP2;ratioP2
16468;SDS011;8345;50.902;6.956;2023-04-27T00:01:39;6.37;;;4.67;;
16468;SDS011;8345;50.902;6.956;2023-04-27T00:04:07;6.37;;;3.80;;
16468;SDS011;8345;50.902;6.956;2023-04-27T00:06:34;7.13;;;4.37;;
16468;SDS011;8345;50.902;6.956;2023-04-27T00:09:01;7.37;;;4.70;;
16468;SDS011;8345;50.902;6.956;2023-04-27T00:11:28;7.57;;;4.80;;
16468;SDS011;8345;50.902;6.956;2023-04-27T00:13:57;8.47;;;4.37;;
16468;SDS011;8345;50.902;6.956;2023-04-27T00:16:24;7.27;;;4.93;;
16468;SDS011;8345;50.902;6.956;2023-04-27T00:18:51;5.60;;;4.00;;
16468;SDS011;8345;50.902;6.956;2023-04-27T00:21:19;5.57;;;4.33;;
16468;SDS011;8345;50.902;6.956;2023-04-27T00:23:47;6.43;;;4.17;;
16468;SDS011;8345;50.902;6.956;2023-04-27T00:26:14;5.67;;;4.33;;
16468;SDS011;8345;50.902;6.956;2023-04-27T00:28:41;6.17;;;4.80;;
16468;SDS011;8345;50.902;6.956;2023-04-27T00:31:10;5.77;;;4.40;;
16468;SDS011;8345;50.902;6.956;2023-04-27T00:33:37;8.33;;;4.60;;
16468;SDS011;8345;50.902;6.956;2023-04-27T00:36:04;8.13;;;4.50;;
16468;SDS011;8345;50.902;6.956;2023-04-27T00:38:31;11.93;;;4.70;;
16468;SDS011;8345;50.902;6.956;2023-04-27T00:40:59;9.87;;;4.50;;
16468;SDS011;8345;50.902;6.956;2023-04-27T00:43:26;7.07;;;4.37;;
16468;SDS011;8345;50.902;6.956;2023-04-27T00:45:54;5.97;;;4.30;;
16468;SDS011;8345;50.902;6.956;2023-04-27T00:48:22;9.03;;;4.40;;
16468;SDS011;8345;50.902;6.956;2023-04-27T00:50:50;7.67;;;4.67;;
16468;SDS011;8345;50.902;6.956;2023-04-27T00:53:17;7.33;;;4.93;;
16468;SDS011;8345;50.902;6.956;2023-04-27T00:55:45;5.57;;;4.80;;
16468;SDS011;8345;50.902;6.956;2023-04-27T00:58:13;8.50;;;4.40;;
16468;SDS011;8345;50.902;6.956;2023-04-27T01:00:40;6.27;;;4.60;;
16468;SDS011;8345;50.902;6.956;2023-04-27T01:03:07;5.47;;;4.60;;
16468;SDS011;8345;50.902;6.956;2023-04-27T01:05:36;5.63;;;5.03;;
16468;SDS011;8345;50.902;6.956;2023-04-27T01:08:04;6.77;;;4.37;;
16468;SDS011;8345;50.902;6.956;2023-04-27T01:10:31;6.67;;;5.10;;
16468;SDS011;8345;50.902;6.956;2023-04-27T01:12:58;6.23;;;4.90;;
16468;SDS011;8345;50.902;6.956;2023-04-27T01:15:25;7.73;;;5.00;;
16468;SDS011;8345;50.902;6.956;2023-04-27T01:17:56;5.10;;;4.57;;
16468;SDS011;8345;50.902;6.956;2023-04-27T01:20:23;6.23;;;4.90;;
16468;SDS011;8345;50.902;6.956;2023-04-27T01:22:53;6.23;;;5.00;;
16468;SDS011;8345;50.902;6.956;2023-04-27T01:25:22;5.50;;;4.27;;
16468;SDS011;8345;50.902;6.956;2023-04-27T01:27:49;6.43;;;5.30;;
16468;SDS011;8345;50.902;6.956;2023-04-27T01:30:17;6.57;;;5.00;;
16468;SDS011;8345;50.902;6.956;2023-04-27T01:32:46;6.27;;;5.10;;
16468;SDS011;8345;50.902;6.956;2023-04-27T01:35:13;7.80;;;5.17;;
16468;SDS011;8345;50.902;6.956;2023-04-27T01:37:41;7.33;;;5.30;;
16468;SDS011;8345;50.902;6.956;2023-04-27T01:40:08;6.43;;;4.93;;
16468;SDS011;8345;50.902;6.956;2023-04-27T01:42:37;6.83;;;5.03;;
16468;SDS011;8345;50.902;6.956;2023-04-27T01:45:05;7.70;;;5.03;;
16468;SDS011;8345;50.902;6.956;2023-04-27T01:47:32;7.47;;;5.53;;
16468;SDS011;8345;50.902;6.956;2023-04-27T01:49:59;8.27;;;5.33;;
16468;SDS011;8345;50.902;6.956;2023-04-27T01:52:26;6.60;;;5.00;;
16468;SDS011;8345;50.902;6.956;2023-04-27T01:54:54;6.73;;;5.17;;
16468;SDS011;8345;50.902;6.956;2023-04-27T01:57:21;7.43;;;5.03;;
16468;SDS011;8345;50.902;6.956;2023-04-27T01:59:50;6.80;;;5.97;;
16468;SDS011;8345;50.902;6.956;2023-04-27T02:02:17;7.40;;;5.43;;
16468;SDS011;8345;50.902;6.956;2023-04-27T02:04:45;7.47;;;5.07;;
16468;SDS011;8345;50.902;6.956;2023-04-27T02:07:12;7.67;;;5.03;;
16468;SDS011;8345;50.902;6.956;2023-04-27T02:09:39;6.23;;;5.27;;
16468;SDS011;8345;50.902;6.956;2023-04-27T02:12:06;7.47;;;5.70;;
16468;SDS011;8345;50.902;6.956;2023-04-27T02:14:33;7.87;;;5.67;;
16468;SDS011;8345;50.902;6.956;2023-04-27T02:17:02;7.67;;;4.77;;
16468;SDS011;8345;50.902;6.956;2023-04-27T02:19:29;7.33;;;5.03;;
16468;SDS011;8345;50.902;6.956;2023-04-27T02:21:56;7.90;;;5.33;;
16468;SDS011;8345;50.902;6.956;2023-04-27T02:24:23;6.07;;;4.87;;
16468;SDS011;8345;50.902;6.956;2023-04-27T02:26:51;12.47;;;5.63;;
16468;SDS011;8345;50.902;6.956;2023-04-27T02:29:18;8.17;;;5.33;;
16468;SDS011;8345;50.902;6.956;2023-04-27T02:31:45;9.30;;;5.33;;
16468;SDS011;8345;50.902;6.956;2023-04-27T02:34:14;8.03;;;5.70;;
16468;SDS011;8345;50.902;6.956;2023-04-27T02:36:41;8.03;;;5.73;;
16468;SDS011;8345;50.902;6.956;2023-04-27T02:39:08;7.83;;;5.03;;
16468;SDS011;8345;50.902;6.956;2023-04-27T02:41:35;6.27;;;4.77;;
16468;SDS011;8345;50.902;6.956;2023-04-27T02:44:02;6.13;;;5.53;;
16468;SDS011;8345;50.902;6.956;2023-04-27T02:46:29;8.33;;;5.50;;
16468;SDS011;8345;50.902;6.956;2023-04-27T02:48:56;8.27;;;5.33;;
16468;SDS011;8345;50.902;6.956;2023-04-27T02:51:25;7.53;;;5.93;;
16468;SDS011;8345;50.902;6.956;2023-04-27T02:53:53;6.47;;;5.27;;
16468;SDS011;8345;50.902;6.956;2023-04-27T02:56:20;9.40;;;5.93;;
16468;SDS011;8345;50.902;6.956;2023-04-27T02:58:47;8.07;;;5.10;;
16468;SDS011;8345;50.902;6.956;2023-04-27T03:01:14;7.40;;;5.43;;
16468;SDS011;8345;50.902;6.956;2023-04-27T03:03:43;7.13;;;5.20;;
16468;SDS011;8345;50.902;6.956;2023-04-27T03:06:11;6.47;;;5.53;;
16468;SDS011;8345;50.902;6.956;2023-04-27T03:08:40;8.77;;;5.30;;
16468;SDS011;8345;50.902;6.956;2023-04-27T03:11:07;6.17;;;5.13;;
16468;SDS011;8345;50.902;6.956;2023-04-27T03:13:36;8.30;;;5.50;;
16468;SDS011;8345;50.902;6.956;2023-04-27T03:16:07;10.77;;;5.93;;
16468;SDS011;8345;50.902;6.956;2023-04-27T03:18:34;7.10;;;5.40;;
16468;SDS011;8345;50.902;6.956;2023-04-27T03:21:05;7.90;;;5.60;;
16468;SDS011;8345;50.902;6.956;2023-04-27T03:23:33;8.27;;;5.43;;
16468;SDS011;8345;50.902;6.956;2023-04-27T03:26:04;8.73;;;5.60;;
16468;SDS011;8345;50.902;6.956;2023-04-27T03:28:31;8.60;;;6.20;;
16468;SDS011;8345;50.902;6.956;2023-04-27T03:30:58;5.83;;;5.13;;
16468;SDS011;8345;50.902;6.956;2023-04-27T03:33:25;7.83;;;5.40;;
16468;SDS011;8345;50.902;6.956;2023-04-27T03:35:54;6.80;;;5.03;;
16468;SDS011;8345;50.902;6.956;2023-04-27T03:38:21;7.60;;;5.23;;
16468;SDS011;8345;50.902;6.956;2023-04-27T03:40:49;8.47;;;5.83;;
16468;SDS011;8345;50.902;6.956;2023-04-27T03:43:18;8.53;;;5.77;;
16468;SDS011;8345;50.902;6.956;2023-04-27T03:45:45;10.50;;;5.47;;
16468;SDS011;8345;50.902;6.956;2023-04-27T03:48:13;7.10;;;5.80;;
16468;SDS011;8345;50.902;6.956;2023-04-27T03:50:40;9.03;;;5.63;;
16468;SDS011;8345;50.902;6.956;2023-04-27T03:53:08;7.83;;;5.57;;
16468;SDS011;8345;50.902;6.956;2023-04-27T03:55:36;11.77;;;6.27;;
16468;SDS011;8345;50.902;6.956;2023-04-27T03:58:04;7.20;;;5.97;;
16468;SDS011;8345;50.902;6.956;2023-04-27T04:00:32;9.63;;;6.17;;
16468;SDS011;8345;50.902;6.956;2023-04-27T04:03:00;7.53;;;5.47;;
16468;SDS011;8345;50.902;6.956;2023-04-27T04:05:27;8.77;;;5.80;;
16468;SDS011;8345;50.902;6.956;2023-04-27T04:07:55;9.70;;;5.83;;
16468;SDS011;8345;50.902;6.956;2023-04-27T04:10:23;8.80;;;6.17;;
16468;SDS011;8345;50.902;6.956;2023-04-27T04:12:50;8.43;;;6.10;;
16468;SDS011;8345;50.902;6.956;2023-04-27T04:15:17;10.67;;;6.70;;
16468;SDS011;8345;50.902;6.956;2023-04-27T04:17:46;8.20;;;6.20;;
16468;SDS011;8345;50.902;6.956;2023-04-27T04:20:13;8.07;;;6.47;;
16468;SDS011;8345;50.902;6.956;2023-04-27T04:22:40;8.93;;;6.27;;
16468;SDS011;8345;50.902;6.956;2023-04-27T04:25:08;11.27;;;6.07;;
16468;SDS011;8345;50.902;6.956;2023-04-27T04:27:37;9.53;;;5.90;;
16468;SDS011;8345;50.902;6.956;2023-04-27T04:30:04;8.10;;;6.60;;
16468;SDS011;8345;50.902;6.956;2023-04-27T04:32:32;9.53;;;6.10;;
16468;SDS011;8345;50.902;6.956;2023-04-27T04:35:03;9.67;;;6.43;;
16468;SDS011;8345;50.902;6.956;2023-04-27T04:37:31;11.70;;;7.43;;
16468;SDS011;8345;50.902;6.956;2023-04-27T04:39:59;14.00;;;9.50;;
16468;SDS011;8345;50.902;6.956;2023-04-27T04:42:26;8.77;;;6.30;;
16468;SDS011;8345;50.902;6.956;2023-04-27T04:44:54;8.40;;;6.80;;
16468;SDS011;8345;50.902;6.956;2023-04-27T04:47:21;8.27;;;6.50;;
16468;SDS011;8345;50.902;6.956;2023-04-27T04:49:48;7.63;;;6.83;;
16468;SDS011;8345;50.902;6.956;2023-04-27T04:52:16;7.70;;;5.83;;
16468;SDS011;8345;50.902;6.956;2023-04-27T04:54:44;9.97;;;6.43;;
16468;SDS011;8345;50.902;6.956;2023-04-27T04:57:11;8.70;;;6.40;;
16468;SDS011;8345;50.902;6.956;2023-04-27T04:59:38;11.30;;;6.57;;
16468;SDS011;8345;50.902;6.956;2023-04-27T05:02:06;9.47;;;6.03;;
16468;SDS011;8345;50.902;6.956;2023-04-27T05:04:33;9.47;;;6.50;;
16468;SDS011;8345;50.902;6.956;2023-04-27T05:07:00;9.77;;;6.83;;
16468;SDS011;8345;50.902;6.956;2023-04-27T05:09:30;10.77;;;6.93;;
16468;SDS011;8345;50.902;6.956;2023-04-27T05:11:57;8.27;;;6.33;;
16468;SDS011;8345;50.902;6.956;2023-04-27T05:14:25;11.20;;;7.30;;
16468;SDS011;8345;50.902;6.956;2023-04-27T05:16:52;10.57;;;6.93;;
16468;SDS011;8345;50.902;6.956;2023-04-27T05:19:19;10.20;;;6.73;;
16468;SDS011;8345;50.902;6.956;2023-04-27T05:21:46;9.97;;;7.07;;
16468;SDS011;8345;50.902;6.956;2023-04-27T05:24:14;9.37;;;6.80;;
16468;SDS011;8345;50.902;6.956;2023-04-27T05:26:42;10.30;;;7.17;;
16468;SDS011;8345;50.902;6.956;2023-04-27T05:29:09;11.30;;;6.53;;
16468;SDS011;8345;50.902;6.956;2023-04-27T05:31:37;9.23;;;6.77;;
16468;SDS011;8345;50.902;6.956;2023-04-27T05:34:04;10.37;;;6.63;;
16468;SDS011;8345;50.902;6.956;2023-04-27T05:36:32;9.83;;;7.10;;
16468;SDS011;8345;50.902;6.956;2023-04-27T05:39:00;9.07;;;7.03;;
16468;SDS011;8345;50.902;6.956;2023-04-27T05:41:28;16.13;;;7.17;;
16468;SDS011;8345;50.902;6.956;2023-04-27T05:43:56;11.13;;;6.80;;
16468;SDS011;8345;50.902;6.956;2023-04-27T05:46:24;11.40;;;7.70;;
16468;SDS011;8345;50.902;6.956;2023-04-27T05:48:51;10.17;;;6.97;;
16468;SDS011;8345;50.902;6.956;2023-04-27T05:51:18;10.47;;;7.20;;
16468;SDS011;8345;50.902;6.956;2023-04-27T05:53:45;9.60;;;7.40;;
16468;SDS011;8345;50.902;6.956;2023-04-27T05:56:12;8.83;;;7.37;;
16468;SDS011;8345;50.902;6.956;2023-04-27T05:58:40;12.43;;;7.73;;
16468;SDS011;8345;50.902;6.956;2023-04-27T06:01:08;9.73;;;7.33;;
16468;SDS011;8345;50.902;6.956;2023-04-27T06:03:35;10.63;;;7.93;;
16468;SDS011;8345;50.902;6.956;2023-04-27T06:06:03;11.30;;;7.63;;
16468;SDS011;8345;50.902;6.956;2023-04-27T06:08:30;8.90;;;7.03;;
16468;SDS011;8345;50.902;6.956;2023-04-27T06:10:59;7.67;;;6.57;;
16468;SDS011;8345;50.902;6.956;2023-04-27T06:13:27;9.87;;;7.83;;
16468;SDS011;8345;50.902;6.956;2023-04-27T06:15:54;10.13;;;7.67;;
16468;SDS011;8345;50.902;6.956;2023-04-27T06:18:23;13.13;;;7.83;;
16468;SDS011;8345;50.902;6.956;2023-04-27T06:20:50;29.83;;;8.83;;
16468;SDS011;8345;50.902;6.956;2023-04-27T06:23:18;11.13;;;7.70;;
16468;SDS011;8345;50.902;6.956;2023-04-27T06:25:45;10.00;;;7.57;;
16468;SDS011;8345;50.902;6.956;2023-04-27T06:28:12;8.93;;;8.03;;
16468;SDS011;8345;50.902;6.956;2023-04-27T06:30:39;11.50;;;8.37;;
16468;SDS011;8345;50.902;6.956;2023-04-27T06:33:07;16.43;;;8.50;;
16468;SDS011;8345;50.902;6.956;2023-04-27T06:35:36;10.87;;;7.87;;
16468;SDS011;8345;50.902;6.956;2023-04-27T06:38:03;11.13;;;7.77;;
16468;SDS011;8345;50.902;6.956;2023-04-27T06:40:30;10.27;;;7.60;;
16468;SDS011;8345;50.902;6.956;2023-04-27T06:42:57;10.47;;;7.73;;
16468;SDS011;8345;50.902;6.956;2023-04-27T06:45:25;10.33;;;7.57;;
16468;SDS011;8345;50.902;6.956;2023-04-27T06:47:52;12.27;;;7.57;;
16468;SDS011;8345;50.902;6.956;2023-04-27T06:50:19;9.23;;;7.10;;
16468;SDS011;8345;50.902;6.956;2023-04-27T06:52:47;9.80;;;7.87;;
16468;SDS011;8345;50.902;6.956;2023-04-27T06:55:15;12.80;;;8.23;;
16468;SDS011;8345;50.902;6.956;2023-04-27T06:57:42;14.37;;;8.47;;
16468;SDS011;8345;50.902;6.956;2023-04-27T07:00:10;10.53;;;8.13;;
16468;SDS011;8345;50.902;6.956;2023-04-27T07:02:38;12.77;;;7.90;;
16468;SDS011;8345;50.902;6.956;2023-04-27T07:05:05;9.87;;;8.33;;
16468;SDS011;8345;50.902;6.956;2023-04-27T07:07:32;9.23;;;7.67;;
16468;SDS011;8345;50.902;6.956;2023-04-27T07:10:01;9.93;;;7.83;;
16468;SDS011;8345;50.902;6.956;2023-04-27T07:12:28;9.53;;;8.37;;
16468;SDS011;8345;50.902;6.956;2023-04-27T07:14:55;10.07;;;7.47;;
16468;SDS011;8345;50.902;6.956;2023-04-27T07:17:22;9.70;;;7.80;;
16468;SDS011;8345;50.902;6.956;2023-04-27T07:19:49;12.43;;;8.60;;
16468;SDS011;8345;50.902;6.956;2023-04-27T07:22:17;13.13;;;8.10;;
16468;SDS011;8345;50.902;6.956;2023-04-27T07:24:44;11.70;;;7.60;;
16468;SDS011;8345;50.902;6.956;2023-04-27T07:27:12;10.20;;;7.83;;
16468;SDS011;8345;50.902;6.956;2023-04-27T07:29:39;12.23;;;7.70;;
16468;SDS011;8345;50.902;6.956;2023-04-27T07:32:07;9.40;;;7.90;;
16468;SDS011;8345;50.902;6.956;2023-04-27T07:34:34;10.23;;;8.20;;
16468;SDS011;8345;50.902;6.956;2023-04-27T07:37:01;10.93;;;8.77;;
16468;SDS011;8345;50.902;6.956;2023-04-27T07:39:29;9.00;;;7.47;;
16468;SDS011;8345;50.902;6.956;2023-04-27T07:41:58;11.20;;;8.47;;
16468;SDS011;8345;50.902;6.956;2023-04-27T07:44:27;11.07;;;8.63;;
16468;SDS011;8345;50.902;6.956;2023-04-27T07:46:55;10.63;;;8.10;;
16468;SDS011;8345;50.902;6.956;2023-04-27T07:49:22;10.17;;;7.73;;
16468;SDS011;8345;50.902;6.956;2023-04-27T07:51:50;11.23;;;7.97;;
16468;SDS011;8345;50.902;6.956;2023-04-27T07:54:17;8.77;;;7.77;;
16468;SDS011;8345;50.902;6.956;2023-04-27T07:56:44;9.40;;;7.67;;
16468;SDS011;8345;50.902;6.956;2023-04-27T07:59:11;10.10;;;8.60;;
16468;SDS011;8345;50.902;6.956;2023-04-27T08:01:40;14.33;;;8.50;;
16468;SDS011;8345;50.902;6.956;2023-04-27T08:04:08;11.47;;;8.63;;
16468;SDS011;8345;50.902;6.956;2023-04-27T08:06:36;10.47;;;8.67;;
16468;SDS011;8345;50.902;6.956;2023-04-27T08:09:03;9.40;;;8.40;;
16468;SDS011;8345;50.902;6.956;2023-04-27T08:11:30;10.70;;;8.40;;
16468;SDS011;8345;50.902;6.956;2023-04-27T08:13:58;10.57;;;8.63;;
16468;SDS011;8345;50.902;6.956;2023-04-27T08:16:25;12.53;;;8.87;;
16468;SDS011;8345;50.902;6.956;2023-04-27T08:18:53;12.53;;;8.13;;
16468;SDS011;8345;50.902;6.956;2023-04-27T08:21:20;10.60;;;8.37;;
16468;SDS011;8345;50.902;6.956;2023-04-27T08:23:48;9.33;;;8.17;;
16468;SDS011;8345;50.902;6.956;2023-04-27T08:26:15;10.77;;;8.57;;
16468;SDS011;8345;50.902;6.956;2023-04-27T08:28:42;12.47;;;8.40;;
16468;SDS011;8345;50.902;6.956;2023-04-27T08:31:09;11.03;;;8.73;;
16468;SDS011;8345;50.902;6.956;2023-04-27T08:33:37;11.80;;;8.60;;
16468;SDS011;8345;50.902;6.956;2023-04-27T08:36:06;9.50;;;8.40;;
16468;SDS011;8345;50.902;6.956;2023-04-27T08:38:33;11.80;;;8.10;;
16468;SDS011;8345;50.902;6.956;2023-04-27T08:41:00;11.90;;;8.93;;
16468;SDS011;8345;50.902;6.956;2023-04-27T08:43:31;10.60;;;8.50;;
16468;SDS011;8345;50.902;6.956;2023-04-27T08:45:58;12.27;;;7.77;;
16468;SDS011;8345;50.902;6.956;2023-04-27T08:48:26;12.27;;;8.47;;
16468;SDS011;8345;50.902;6.956;2023-04-27T08:50:53;10.10;;;8.27;;
16468;SDS011;8345;50.902;6.956;2023-04-27T08:53:23;8.87;;;7.97;;
16468;SDS011;8345;50.902;6.956;2023-04-27T08:55:50;9.70;;;8.70;;
16468;SDS011;8345;50.902;6.956;2023-04-27T08:58:19;9.67;;;8.53;;
16468;SDS011;8345;50.902;6.956;2023-04-27T09:00:47;11.97;;;8.33;;
16468;SDS011;8345;50.902;6.956;2023-04-27T09:03:20;10.67;;;9.57;;
16468;SDS011;8345;50.902;6.956;2023-04-27T09:05:48;12.87;;;9.10;;
16468;SDS011;8345;50.902;6.956;2023-04-27T09:08:15;10.23;;;9.13;;
16468;SDS011;8345;50.902;6.956;2023-04-27T09:10:44;9.70;;;8.70;;
16468;SDS011;8345;50.902;6.956;2023-04-27T09:13:12;11.00;;;9.27;;
16468;SDS011;8345;50.902;6.956;2023-04-27T09:15:43;11.43;;;8.53;;
16468;SDS011;8345;50.902;6.956;2023-04-27T09:18:14;10.77;;;9.07;;
16468;SDS011;8345;50.902;6.956;2023-04-27T09:20:42;11.00;;;8.17;;
16468;SDS011;8345;50.902;6.956;2023-04-27T09:23:09;10.33;;;9.20;;
16468;SDS011;8345;50.902;6.956;2023-04-27T09:25:36;10.73;;;8.97;;
16468;SDS011;8345;50.902;6.956;2023-04-27T09:28:06;10.97;;;9.40;;
16468;SDS011;8345;50.902;6.956;2023-04-27T09:30:34;12.17;;;9.73;;
16468;SDS011;8345;50.902;6.956;2023-04-27T09:33:02;13.17;;;8.87;;
16468;SDS011;8345;50.902;6.956;2023-04-27T09:35:30;9.67;;;8.47;;
16468;SDS011;8345;50.902;6.956;2023-04-27T09:37:57;12.07;;;9.03;;
16468;SDS011;8345;50.902;6.956;2023-04-27T09:40:25;11.87;;;9.93;;
16468;SDS011;8345;50.902;6.956;2023-04-27T09:42:54;9.67;;;8.63;;
16468;SDS011;8345;50.902;6.956;2023-04-27T09:45:23;10.50;;;9.50;;
16468;SDS011;8345;50.902;6.956;2023-04-27T09:47:50;11.30;;;8.93;;
16468;SDS011;8345;50.902;6.956;2023-04-27T09:50:17;11.63;;;9.20;;
16468;SDS011;8345;50.902;6.956;2023-04-27T09:52:45;12.90;;;9.57;;
16468;SDS011;8345;50.902;6.956;2023-04-27T09:55:14;10.13;;;8.90;;
16468;SDS011;8345;50.902;6.956;2023-04-27T09:57:45;10.47;;;9.23;;
16468;SDS011;8345;50.902;6.956;2023-04-27T10:00:16;10.70;;;9.03;;
16468;SDS011;8345;50.902;6.956;2023-04-27T10:02:48;14.00;;;10.03;;
16468;SDS011;8345;50.902;6.956;2023-04-27T10:05:24;9.73;;;8.73;;
16468;SDS011;8345;50.902;6.956;2023-04-27T10:07:54;10.70;;;9.43;;
16468;SDS011;8345;50.902;6.956;2023-04-27T10:10:22;12.93;;;9.90;;
16468;SDS011;8345;50.902;6.956;2023-04-27T10:12:55;12.30;;;9.43;;
16468;SDS011;8345;50.902;6.956;2023-04-27T10:15:26;10.77;;;9.37;;
16468;SDS011;8345;50.902;6.956;2023-04-27T10:17:55;12.80;;;9.90;;
16468;SDS011;8345;50.902;6.956;2023-04-27T10:20:29;11.77;;;8.90;;
16468;SDS011;8345;50.902;6.956;2023-04-27T10:22:56;10.47;;;9.03;;
16468;SDS011;8345;50.902;6.956;2023-04-27T10:25:25;12.13;;;9.80;;
16468;SDS011;8345;50.902;6.956;2023-04-27T10:27:53;10.57;;;8.43;;
16468;SDS011;8345;50.902;6.956;2023-04-27T10:30:21;9.33;;;8.00;;
16468;SDS011;8345;50.902;6.956;2023-04-27T10:32:49;12.60;;;9.17;;
16468;SDS011;8345;50.902;6.956;2023-04-27T10:35:18;10.60;;;9.50;;
16468;SDS011;8345;50.902;6.956;2023-04-27T10:37:46;10.00;;;9.00;;
16468;SDS011;8345;50.902;6.956;2023-04-27T10:40:14;9.90;;;8.07;;
16468;SDS011;8345;50.902;6.956;2023-04-27T10:42:43;10.60;;;9.37;;
16468;SDS011;8345;50.902;6.956;2023-04-27T10:45:10;11.27;;;9.00;;
16468;SDS011;8345;50.902;6.956;2023-04-27T10:47:38;9.27;;;8.30;;
16468;SDS011;8345;50.902;6.956;2023-04-27T10:50:07;9.63;;;8.50;;
16468;SDS011;8345;50.902;6.956;2023-04-27T10:52:40;10.93;;;9.17;;
16468;SDS011;8345;50.902;6.956;2023-04-27T10:55:14;10.57;;;8.63;;
16468;SDS011;8345;50.902;6.956;2023-04-27T10:57:48;9.13;;;8.23;;
16468;SDS011;8345;50.902;6.956;2023-04-27T11:00:21;9.67;;;8.40;;
16468;SDS011;8345;50.902;6.956;2023-04-27T11:02:49;9.47;;;8.47;;
16468;SDS011;8345;50.902;6.956;2023-04-27T11:05:17;12.80;;;9.70;;
16468;SDS011;8345;50.902;6.956;2023-04-27T11:07:45;10.33;;;8.70;;
16468;SDS011;8345;50.902;6.956;2023-04-27T11:10:16;10.13;;;8.70;;
16468;SDS011;8345;50.902;6.956;2023-04-27T11:12:43;13.20;;;9.20;;
16468;SDS011;8345;50.902;6.956;2023-04-27T11:15:10;10.60;;;9.40;;
16468;SDS011;8345;50.902;6.956;2023-04-27T11:17:38;10.33;;;9.23;;
16468;SDS011;8345;50.902;6.956;2023-04-27T11:20:06;10.83;;;8.37;;
16468;SDS011;8345;50.902;6.956;2023-04-27T11:22:33;9.63;;;8.63;;
16468;SDS011;8345;50.902;6.956;2023-04-27T11:25:02;9.80;;;8.00;;
16468;SDS011;8345;50.902;6.956;2023-04-27T11:27:36;9.80;;;8.03;;
16468;SDS011;8345;50.902;6.956;2023-04-27T11:30:04;10.37;;;7.90;;
16468;SDS011;8345;50.902;6.956;2023-04-27T11:32:32;9.30;;;8.47;;
16468;SDS011;8345;50.902;6.956;2023-04-27T11:35:00;9.37;;;8.27;;
16468;SDS011;8345;50.902;6.956;2023-04-27T11:37:27;9.23;;;7.73;;
16468;SDS011;8345;50.902;6.956;2023-04-27T11:39:56;10.30;;;9.00;;
16468;SDS011;8345;50.902;6.956;2023-04-27T11:42:27;11.33;;;9.97;;
16468;SDS011;8345;50.902;6.956;2023-04-27T11:44:56;11.50;;;8.90;;
16468;SDS011;8345;50.902;6.956;2023-04-27T11:47:24;7.60;;;6.10;;
16468;SDS011;8345;50.902;6.956;2023-04-27T11:49:53;8.33;;;6.13;;
16468;SDS011;8345;50.902;6.956;2023-04-27T11:52:21;8.20;;;6.27;;
16468;SDS011;8345;50.902;6.956;2023-04-27T11:54:48;6.67;;;5.63;;
16468;SDS011;8345;50.902;6.956;2023-04-27T11:57:17;8.67;;;7.57;;
16468;SDS011;8345;50.902;6.956;2023-04-27T11:59:45;8.83;;;7.20;;
16468;SDS011;8345;50.902;6.956;2023-04-27T12:02:12;9.40;;;8.27;;
16468;SDS011;8345;50.902;6.956;2023-04-27T12:04:41;9.00;;;7.33;;
16468;SDS011;8345;50.902;6.956;2023-04-27T12:07:08;9.93;;;7.90;;
16468;SDS011;8345;50.902;6.956;2023-04-27T12:09:36;10.13;;;8.30;;
16468;SDS011;8345;50.902;6.956;2023-04-27T12:12:03;11.10;;;8.30;;
16468;SDS011;8345;50.902;6.956;2023-04-27T12:14:30;10.83;;;8.40;;
16468;SDS011;8345;50.902;6.956;2023-04-27T12:16:59;12.27;;;8.43;;
16468;SDS011;8345;50.902;6.956;2023-04-27T12:19:26;7.93;;;7.13;;
16468;SDS011;8345;50.902;6.956;2023-04-27T12:21:54;7.83;;;6.00;;
16468;SDS011;8345;50.902;6.956;2023-04-27T12:24:22;7.00;;;6.30;;
16468;SDS011;8345;50.902;6.956;2023-04-27T12:26:49;5.67;;;5.17;;
16468;SDS011;8345;50.902;6.956;2023-04-27T12:29:16;6.67;;;5.23;;
16468;SDS011;8345;50.902;6.956;2023-04-27T12:31:44;9.77;;;7.20;;
16468;SDS011;8345;50.902;6.956;2023-04-27T12:34:13;7.37;;;6.37;;
16468;SDS011;8345;50.902;6.956;2023-04-27T12:36:40;11.53;;;7.90;;
16468;SDS011;8345;50.902;6.956;2023-04-27T12:39:11;8.83;;;7.27;;
16468;SDS011;8345;50.902;6.956;2023-04-27T12:41:40;11.43;;;7.17;;
16468;SDS011;8345;50.902;6.956;2023-04-27T12:44:07;8.20;;;7.10;;
16468;SDS011;8345;50.902;6.956;2023-04-27T12:46:35;7.10;;;6.40;;
16468;SDS011;8345;50.902;6.956;2023-04-27T12:49:02;7.93;;;7.13;;
16468;SDS011;8345;50.902;6.956;2023-04-27T12:51:31;8.70;;;7.23;;
16468;SDS011;8345;50.902;6.956;2023-04-27T12:53:59;9.80;;;6.77;;
16468;SDS011;8345;50.902;6.956;2023-04-27T12:56:27;8.07;;;7.27;;
16468;SDS011;8345;50.902;6.956;2023-04-27T12:58:54;8.67;;;6.70;;
16468;SDS011;8345;50.902;6.956;2023-04-27T13:01:21;6.97;;;6.27;;
16468;SDS011;8345;50.902;6.956;2023-04-27T13:03:50;10.50;;;7.13;;
16468;SDS011;8345;50.902;6.956;2023-04-27T13:06:17;6.43;;;5.53;;
16468;SDS011;8345;50.902;6.956;2023-04-27T13:08:48;7.77;;;6.13;;
16468;SDS011;8345;50.902;6.956;2023-04-27T13:11:15;7.40;;;6.20;;
16468;SDS011;8345;50.902;6.956;2023-04-27T13:13:43;9.13;;;7.20;;
16468;SDS011;8345;50.902;6.956;2023-04-27T13:16:10;8.70;;;7.80;;
16468;SDS011;8345;50.902;6.956;2023-04-27T13:18:38;7.57;;;6.70;;
16468;SDS011;8345;50.902;6.956;2023-04-27T13:21:06;8.47;;;6.87;;
16468;SDS011;8345;50.902;6.956;2023-04-27T13:23:33;7.27;;;5.77;;
16468;SDS011;8345;50.902;6.956;2023-04-27T13:26:02;8.97;;;7.70;;
16468;SDS011;8345;50.902;6.956;2023-04-27T13:28:31;8.37;;;7.53;;
16468;SDS011;8345;50.902;6.956;2023-04-27T13:30:58;4.73;;;4.33;;
16468;SDS011;8345;50.902;6.956;2023-04-27T13:33:25;9.73;;;7.33;;
16468;SDS011;8345;50.902;6.956;2023-04-27T13:35:52;8.93;;;7.30;;
16468;SDS011;8345;50.902;6.956;2023-04-27T13:38:19;7.13;;;6.13;;
16468;SDS011;8345;50.902;6.956;2023-04-27T13:40:46;6.50;;;5.87;;
16468;SDS011;8345;50.902;6.956;2023-04-27T13:43:15;7.30;;;6.43;;
16468;SDS011;8345;50.902;6.956;2023-04-27T13:45:42;6.20;;;5.60;;
16468;SDS011;8345;50.902;6.956;2023-04-27T13:48:09;9.00;;;6.70;;
16468;SDS011;8345;50.902;6.956;2023-04-27T13:50:37;6.70;;;6.00;;
16468;SDS011;8345;50.902;6.956;2023-04-27T13:53:04;9.07;;;5.60;;
16468;SDS011;8345;50.902;6.956;2023-04-27T13:55:31;6.97;;;5.60;;
16468;SDS011;8345;50.902;6.956;2023-04-27T13:57:59;7.97;;;6.27;;
16468;SDS011;8345;50.902;6.956;2023-04-27T14:00:27;6.97;;;6.20;;
16468;SDS011;8345;50.902;6.956;2023-04-27T14:02:57;6.20;;;4.50;;
16468;SDS011;8345;50.902;6.956;2023-04-27T14:05:24;8.23;;;5.53;;
16468;SDS011;8345;50.902;6.956;2023-04-27T14:07:52;7.10;;;5.80;;
16468;SDS011;8345;50.902;6.956;2023-04-27T14:10:19;6.43;;;5.70;;
16468;SDS011;8345;50.902;6.956;2023-04-27T14:12:46;5.27;;;4.57;;
16468;SDS011;8345;50.902;6.956;2023-04-27T14:15:13;6.00;;;5.03;;
16468;SDS011;8345;50.902;6.956;2023-04-27T14:17:42;7.77;;;6.30;;
16468;SDS011;8345;50.902;6.956;2023-04-27T14:20:09;7.70;;;6.90;;
16468;SDS011;8345;50.902;6.956;2023-04-27T14:22:36;11.37;;;8.17;;
16468;SDS011;8345;50.902;6.956;2023-04-27T14:25:04;10.27;;;7.57;;
16468;SDS011;8345;50.902;6.956;2023-04-27T14:27:31;9.87;;;7.10;;
16468;SDS011;8345;50.902;6.956;2023-04-27T14:29:58;13.50;;;7.47;;
16468;SDS011;8345;50.902;6.956;2023-04-27T14:32:26;7.70;;;6.60;;
16468;SDS011;8345;50.902;6.956;2023-04-27T14:34:54;9.67;;;6.47;;
16468;SDS011;8345;50.902;6.956;2023-04-27T14:37:21;9.07;;;7.93;;
16468;SDS011;8345;50.902;6.956;2023-04-27T14:39:49;11.43;;;7.50;;
16468;SDS011;8345;50.902;6.956;2023-04-27T14:42:16;8.13;;;7.33;;
16468;SDS011;8345;50.902;6.956;2023-04-27T14:44:43;9.20;;;7.67;;
16468;SDS011;8345;50.902;6.956;2023-04-27T14:47:11;8.40;;;5.63;;
16468;SDS011;8345;50.902;6.956;2023-04-27T14:49:38;6.90;;;6.20;;
16468;SDS011;8345;50.902;6.956;2023-04-27T14:52:06;9.77;;;6.90;;
16468;SDS011;8345;50.902;6.956;2023-04-27T14:54:33;10.23;;;7.27;;
16468;SDS011;8345;50.902;6.956;2023-04-27T14:57:02;8.30;;;7.47;;
16468;SDS011;8345;50.902;6.956;2023-04-27T14:59:29;7.53;;;6.77;;